Flight Track Log - Related Links

Times and Time Zones

All times are in EDT time to prevent confusion due to time zone crossing. See the SIL3611 flight status page for this flight to view local times or setup timezone preferences in your user account.

Time Position Orientation Groundspeed Altitude Reporting Facility
EDT Latitude Longitude Course Direction KTS MPH feet Rate Location/Type
Thu 02:00:17 PM 32.3147 -88.6539 63° Northeast 192 221 6,200  Level Memphis Center
Thu 02:01:19 PM 32.3400 -88.5975 62° Northeast 194 223 7,700 1,355 Climbing Memphis Center
Thu 02:02:21 PM 32.3703 -88.5419 57° Northeast 197 227 9,000 1,248 Climbing Memphis Center
Thu 02:03:00 PM 32.3500 -88.3708 90° East  Level FlightAware Approximate
Thu 02:03:24 PM 32.3836 -88.4672 78° East 210 242 10,300  Level Memphis Center
Thu 02:04:00 PM 32.3500 -88.2883 90° East  Level FlightAware Approximate
Thu 02:04:26 PM 32.3781 -88.3994 96° East 209 241 11,500  Level Memphis Center
Thu 02:05:19 PM 32.3708 -88.3422 98° East 208 239 12,200 903 Climbing Atlanta Center
Thu 02:06:19 PM 32.3586 -88.2706 101° East 218 251 13,200 1,000 Climbing Atlanta Center
Thu 02:07:19 PM 32.3467 -88.1936 100° East 230 265 14,200 950 Climbing Atlanta Center
Thu 02:08:19 PM 32.3389 -88.1122 96° East 237 273 15,100 950 Climbing Atlanta Center
Thu 02:09:19 PM 32.3331 -88.0381 95° East 237 273 16,100 900 Climbing Atlanta Center
Thu 02:10:19 PM 32.3314 -87.9619 91° East 237 273 16,900 450 Climbing Atlanta Center
Thu 02:11:19 PM 32.3275 -87.8806 93° East 237 273 17,000 50 Climbing Atlanta Center
Thu 02:12:19 PM 32.3242 -87.7894 92° East 249 287 17,000  Level Atlanta Center
Thu 02:13:19 PM 32.3144 -87.6958 97° East 274 315 17,000  Level Atlanta Center
Thu 02:14:19 PM 32.3028 -87.5969 98° East 287 330 17,000  Level Atlanta Center
Thu 02:15:19 PM 32.2950 -87.5008 95° East 297 342 17,000  Level Atlanta Center
Thu 02:16:19 PM 32.2853 -87.4022 97° East 297 342 17,000  Level Atlanta Center
Thu 02:17:19 PM 32.2778 -87.2864 94° East 297 342 17,000  Level Atlanta Center
Thu 02:18:20 PM 32.2781 -87.1956 90° East 292 336 17,000  Level Atlanta Center
Thu 02:19:19 PM 32.2908 -87.1078 80° East 286 329 17,000  Level Atlanta Center
Thu 02:20:19 PM 32.3033 -87.0172 81° East 276 318 17,000  Level Atlanta Center
Thu 02:21:19 PM 32.3097 -86.9289 85° East 276 318 17,000  Level Atlanta Center
Thu 02:22:19 PM 32.3097 -86.8403 90° East 271 312 17,000  Level Atlanta Center
Thu 02:23:19 PM 32.2969 -86.7539 100° East 271 312 17,000  Level Atlanta Center
Thu 02:24:19 PM 32.2903 -86.6800 96° East 271 312 17,000  Level Atlanta Center
Thu 02:25:19 PM 32.2733 -86.5911 103° East 266 306 17,000  Level Atlanta Center
Thu 02:26:19 PM 32.2564 -86.5047 103° East 266 306 17,000  Level Atlanta Center
Thu 02:27:19 PM 32.2372 -86.4206 105° East 266 306 17,000  Level Atlanta Center
Thu 02:28:19 PM 32.2181 -86.3244 103° East 269 310 17,000  Level Atlanta Center
Thu 02:29:19 PM 32.2547 -86.2517 59° Northeast 236 272 17,000  Level Atlanta Center
Thu 02:30:19 PM 32.3100 -86.1989 39° Northeast 230 265 17,000  Level Atlanta Center
Thu 02:31:19 PM 32.3569 -86.1361 48° Northeast 245 282 17,000  Level Atlanta Center
Thu 02:32:19 PM 32.4064 -86.0661 50° Northeast 257 296 17,000  Level Atlanta Center
Thu 02:33:19 PM 32.4553 -86.0008 48° Northeast 257 296 17,000  Level Atlanta Center
Thu 02:34:19 PM 32.4939 -85.9425 52° Northeast 252 290 17,000 -250 Level Atlanta Center
Thu 02:35:19 PM 32.5428 -85.8769 48° Northeast 265 305 16,500 -750 Descending Atlanta Center
Thu 02:36:19 PM 32.5958 -85.8239 40° Northeast 265 305 15,500 -900 Descending Atlanta Center
Thu 02:37:19 PM 32.6508 -85.7731 38° Northeast 253 291 14,700 -800 Descending Atlanta Center
Thu 02:38:19 PM 32.6975 -85.7100 49° Northeast 247 284 13,900 -787 Descending Atlanta Center
Thu 02:39:21 PM 32.7403 -85.6439 52° Northeast 247 284 13,100 -632 Descending Atlanta Center
Thu 02:40:32 PM 32.7914 -85.5608 54° Northeast 252 290 12,500 -508 Descending Atlanta Center
Thu 02:41:31 PM 32.8358 -85.4950 51° Northeast 252 290 12,000 -655 Descending Atlanta Center
Thu 02:42:31 PM 32.8867 -85.4314 46° Northeast 252 290 11,200 -750 Descending Atlanta Center
Thu 02:43:31 PM 32.9375 -85.3706 45° Northeast 257 296 10,500 -600 Descending Atlanta Center
Thu 02:44:31 PM 32.9864 -85.3019 50° Northeast 263 303 10,000 -550 Descending Atlanta Center
Thu 02:45:31 PM 33.0286 -85.2381 52° Northeast 258 297 9,400 -700 Descending Atlanta Center
Thu 02:46:31 PM 33.0772 -85.1792 45° Northeast 245 282 8,600 -700 Descending Atlanta Center
Thu 02:47:31 PM 33.1194 -85.1153 52° Northeast 245 282 8,000 -300 Descending Atlanta Center
Thu 02:48:31 PM 33.1661 -85.0514 49° Northeast 245 282 8,000  Level Atlanta Center
Thu 02:49:31 PM 33.2083 -84.9897 51° Northeast 245 282 8,000  Level Atlanta Center
Thu 02:51:42 PM 33.3167 -84.8500 47° Northeast 247 284 8,000 -188 Level Atlanta TRACON
Thu 02:52:42 PM 33.3667 -84.8000 40° Northeast 261 300 7,400 -789 Descending Atlanta TRACON
Thu 02:53:36 PM 33.4333 -84.7833 12° North 244 281 6,500 -1,000 Descending Atlanta TRACON
Thu 02:54:36 PM 33.4833 -84.7667 16° North 234 269 5,500 -1,000 Descending Atlanta TRACON
Thu 02:55:36 PM 33.5500 -84.7333 23° Northeast 220 253 4,500 -750 Descending Atlanta TRACON
Thu 02:56:36 PM 33.5667 -84.6833 68° East 200 230 4,000 -350 Descending Atlanta TRACON
Thu 02:57:36 PM 33.6000 -84.6167 59° Northeast 190 219 3,800 -450 Descending Atlanta TRACON
Thu 02:58:36 PM 33.6167 -84.5667 68° East 187 215 3,100 -850 Descending Atlanta TRACON
Thu 02:59:36 PM 33.6167 -84.5167 90° East 158 182 2,100 -900 Descending Atlanta TRACON
Thu 03:00:36 PM 33.6167 -84.4667 90° East 125 144 1,300 -800 Descending Atlanta TRACON
Thu 03:02:00 PM 33.6333 -84.4167 40° Northeast  Level FlightAware Approximate
Thu 03:09:00 PM 33.6367 -84.4279 40° Northeast  Level Estimated

Login

Don't have an account? Register now (free) for customized features, flight alerts, and more!